Time;durP1;ratioP1;P1;durP2;ratioP2;P2;SDS_P1;SDS_P2;PMS_P1;PMS_P2;Temp;Humidity;BMP_temperature;BMP_pressure;BME280_temperature;BME280_humidity;BME280_pressure;Samples;Min_cycle;Max_cycle;Signal;HPM_P1;HPM_P2
2022/03/06 00:01:45;;;;;;;52.80;45.30;;;27.40;98.60;;;;;;4159100;28;20081;-64
2022/03/06 00:03:51;;;;;;;52.38;44.25;;;27.50;98.70;;;;;;4157689;28;20050;-65
2022/03/06 00:05:56;;;;;;;54.70;44.72;;;27.50;98.90;;;;;;4156506;28;20121;-65
2022/03/06 00:08:02;;;;;;;53.78;43.95;;;27.50;98.80;;;;;;4158190;28;20057;-64
2022/03/06 00:10:09;;;;;;;60.03;45.53;;;27.50;98.80;;;;;;4157471;28;21688;-65
2022/03/06 00:12:17;;;;;;;52.65;46.75;;;27.50;98.60;;;;;;4156971;28;20422;-65
2022/03/06 00:14:21;;;;;;;57.80;46.83;;;27.60;98.50;;;;;;4157718;28;20826;-65
2022/03/06 00:16:28;;;;;;;54.80;45.95;;;27.60;98.50;;;;;;4158128;28;20053;-64
2022/03/06 00:18:37;;;;;;;58.25;46.42;;;27.70;98.40;;;;;;4156745;28;20041;-64
2022/03/06 00:20:43;;;;;;;67.50;47.20;;;27.70;98.20;;;;;;4156739;28;20049;-64
2022/03/06 00:22:49;;;;;;;61.60;45.67;;;27.80;98.10;;;;;;4157060;28;20786;-65
2022/03/06 00:24:57;;;;;;;58.42;45.17;;;27.80;98.10;;;;;;4157867;28;20045;-65
2022/03/06 00:27:02;;;;;;;54.00;43.35;;;27.90;98.00;;;;;;4157749;28;20037;-64
2022/03/06 00:29:09;;;;;;;52.55;42.00;;;27.90;97.80;;;;;;4156084;28;20046;-64
2022/03/06 00:31:16;;;;;;;49.80;40.55;;;28.00;97.60;;;;;;4158081;28;20049;-65
2022/03/06 00:33:21;;;;;;;43.75;38.92;;;28.00;97.40;;;;;;4156781;28;20536;-64
2022/03/06 00:35:28;;;;;;;47.00;36.72;;;28.00;97.20;;;;;;4157807;28;20041;-61
2022/03/06 00:37:35;;;;;;;42.33;34.63;;;28.10;97.20;;;;;;4159654;28;20070;-65
2022/03/06 00:39:40;;;;;;;42.70;34.45;;;28.20;97.30;;;;;;4153663;28;20038;-64
2022/03/06 00:41:47;;;;;;;40.80;31.42;;;28.20;97.10;;;;;;4161068;28;20223;-63
2022/03/06 00:43:51;;;;;;;37.92;30.38;;;28.20;96.60;;;;;;4191878;28;20097;-64
2022/03/06 00:45:57;;;;;;;43.53;29.00;;;28.30;96.50;;;;;;4154030;28;20554;-64
2022/03/06 00:48:04;;;;;;;64.93;31.42;;;28.40;96.50;;;;;;4148409;28;20080;-64
2022/03/06 00:50:10;;;;;;;50.95;30.30;;;28.40;96.20;;;;;;4160712;28;20049;-64
2022/03/06 00:52:15;;;;;;;38.17;27.63;;;28.50;96.00;;;;;;4158358;28;20053;-64
2022/03/06 00:54:20;;;;;;;40.95;29.25;;;28.60;95.80;;;;;;4152494;28;20108;-64
2022/03/06 00:56:27;;;;;;;35.03;28.65;;;28.60;95.80;;;;;;4166737;28;20159;-64
2022/03/06 00:58:31;;;;;;;33.67;27.20;;;28.60;95.60;;;;;;4153293;28;20056;-64
2022/03/06 01:00:40;;;;;;;32.47;27.00;;;28.60;95.60;;;;;;4152810;28;20120;-64
2022/03/06 01:02:53;;;;;;;32.13;26.42;;;28.70;95.50;;;;;;4163905;28;20069;-65
2022/03/06 01:04:57;;;;;;;36.33;27.33;;;28.70;95.60;;;;;;4163502;28;20369;-64
2022/03/06 01:07:03;;;;;;;28.10;25.25;;;28.80;95.50;;;;;;4159558;28;20048;-64
2022/03/06 01:09:12;;;;;;;32.08;26.65;;;28.90;95.60;;;;;;4149132;28;20042;-64
2022/03/06 01:11:22;;;;;;;30.65;27.02;;;28.90;95.40;;;;;;4163487;28;20049;-64
2022/03/06 01:13:32;;;;;;;29.75;26.55;;;28.90;95.30;;;;;;4160224;28;20041;-65
2022/03/06 01:15:39;;;;;;;35.75;27.40;;;29.00;95.40;;;;;;4164371;28;20446;-64
2022/03/06 01:17:43;;;;;;;33.55;27.13;;;29.00;95.20;;;;;;4153387;28;20089;-65
2022/03/06 01:19:51;;;;;;;31.85;27.73;;;29.10;95.10;;;;;;4159626;28;20046;-65
2022/03/06 01:21:55;;;;;;;30.35;26.80;;;29.10;95.10;;;;;;4151648;28;20042;-65
2022/03/06 01:24:00;;;;;;;32.00;27.67;;;29.10;95.40;;;;;;4152615;28;20057;-65
2022/03/06 01:26:05;;;;;;;30.17;26.98;;;29.20;95.10;;;;;;4155554;28;20072;-65
2022/03/06 01:28:10;;;;;;;33.25;26.42;;;29.20;95.00;;;;;;4160385;28;20069;-65
2022/03/06 01:30:16;;;;;;;30.55;27.08;;;29.10;94.80;;;;;;4164839;28;20061;-65
2022/03/06 01:32:22;;;;;;;31.95;26.88;;;29.20;94.90;;;;;;4166909;28;20052;-65
2022/03/06 01:34:27;;;;;;;30.85;27.25;;;29.20;94.90;;;;;;4162097;28;20053;-64
2022/03/06 01:36:32;;;;;;;31.58;27.13;;;29.20;94.80;;;;;;4164080;28;20060;-65
2022/03/06 01:38:38;;;;;;;33.25;28.00;;;29.30;94.80;;;;;;4164928;28;20495;-65
2022/03/06 01:40:42;;;;;;;33.83;27.52;;;29.40;94.80;;;;;;4159493;28;20045;-65
2022/03/06 01:42:48;;;;;;;35.45;28.38;;;29.40;94.60;;;;;;4160552;28;20439;-65
2022/03/06 01:44:53;;;;;;;31.23;27.95;;;29.30;94.60;;;;;;4160499;28;20100;-65
2022/03/06 01:46:58;;;;;;;32.47;29.05;;;29.30;94.60;;;;;;4158227;28;20503;-62
2022/03/06 01:49:02;;;;;;;32.40;27.17;;;29.30;94.60;;;;;;4158528;28;20067;-66
2022/03/06 01:51:10;;;;;;;32.80;29.35;;;29.30;94.60;;;;;;4163153;28;20063;-65
2022/03/06 01:53:18;;;;;;;38.78;30.23;;;29.40;94.60;;;;;;4158342;28;20049;-66
2022/03/06 01:55:24;;;;;;;33.05;29.33;;;29.40;94.50;;;;;;4160615;28;20092;-65
2022/03/06 01:57:30;;;;;;;36.10;31.48;;;29.40;94.50;;;;;;4163724;28;20056;-64
2022/03/06 01:59:37;;;;;;;32.50;28.77;;;29.50;94.50;;;;;;4159900;28;20458;-64
2022/03/06 02:01:41;;;;;;;33.75;28.17;;;29.60;94.70;;;;;;4160437;28;20546;-66
2022/03/06 02:03:48;;;;;;;34.75;29.08;;;29.60;94.50;;;;;;4158202;28;20037;-65
2022/03/06 02:05:55;;;;;;;31.88;28.50;;;29.70;94.50;;;;;;4163357;28;20041;-64
2022/03/06 02:07:59;;;;;;;31.73;28.38;;;29.70;94.40;;;;;;4163331;28;20439;-65
2022/03/06 02:10:06;;;;;;;32.85;29.02;;;29.80;94.40;;;;;;4158047;28;20107;-64
2022/03/06 02:14:27;;;;;;;31.08;27.80;;;29.80;94.30;;;;;;4164224;28;20077;-65
2022/03/06 02:16:33;;;;;;;31.42;27.98;;;29.80;94.40;;;;;;4167121;28;20081;-65
2022/03/06 02:18:37;;;;;;;31.98;28.58;;;29.80;94.10;;;;;;4159318;28;20077;-66
2022/03/06 02:20:42;;;;;;;30.80;27.52;;;29.80;94.00;;;;;;4167559;28;20513;-65
2022/03/06 02:22:53;;;;;;;31.13;27.40;;;29.90;94.10;;;;;;4166326;28;20044;-65
2022/03/06 02:25:04;;;;;;;34.03;28.30;;;30.00;94.20;;;;;;4158280;28;20052;-65
2022/03/06 02:27:08;;;;;;;32.63;27.27;;;30.00;94.00;;;;;;4162691;28;20558;-65
2022/03/06 02:29:15;;;;;;;30.35;27.13;;;30.00;93.90;;;;;;4167299;28;20077;-66
2022/03/06 02:31:22;;;;;;;31.40;28.05;;;30.10;93.70;;;;;;4161543;28;20420;-65
2022/03/06 02:33:26;;;;;;;29.90;26.80;;;30.10;93.70;;;;;;4163096;28;20076;-66
2022/03/06 02:35:31;;;;;;;30.17;27.08;;;30.20;93.30;;;;;;4166425;28;20368;-66
2022/03/06 02:37:36;;;;;;;31.52;28.00;;;30.20;93.40;;;;;;4158587;28;20053;-66
2022/03/06 02:39:42;;;;;;;31.92;27.65;;;30.30;93.20;;;;;;4157415;28;20045;-66
2022/03/06 02:41:49;;;;;;;30.63;25.77;;;30.40;93.10;;;;;;4162672;28;20132;-65
2022/03/06 02:43:56;;;;;;;27.92;24.98;;;30.40;93.00;;;;;;4161353;28;20389;-65
2022/03/06 02:46:00;;;;;;;27.40;24.50;;;30.40;92.60;;;;;;4156962;28;20037;-66
2022/03/06 02:48:05;;;;;;;26.63;23.80;;;30.50;92.50;;;;;;4161037;28;20561;-65
2022/03/06 02:50:13;;;;;;;27.92;24.73;;;30.60;92.40;;;;;;4158859;28;20128;-66
2022/03/06 02:52:18;;;;;;;26.95;24.02;;;30.70;92.30;;;;;;4160573;28;20148;-66
2022/03/06 02:54:24;;;;;;;27.48;24.65;;;30.70;92.40;;;;;;4157114;28;20061;-66
2022/03/06 02:56:31;;;;;;;28.42;24.73;;;30.80;92.10;;;;;;4156198;28;20140;-66
2022/03/06 02:58:35;;;;;;;30.95;24.75;;;30.80;91.80;;;;;;4161690;28;20145;-66
2022/03/06 03:00:42;;;;;;;31.30;26.10;;;30.80;91.70;;;;;;4161933;28;20045;-66
2022/03/06 03:02:47;;;;;;;30.42;25.30;;;30.80;91.50;;;;;;4158376;28;20045;-65
2022/03/06 03:04:52;;;;;;;28.85;25.60;;;30.80;91.60;;;;;;4157964;28;20480;-65
2022/03/06 03:06:57;;;;;;;26.77;23.98;;;30.80;91.30;;;;;;4154236;28;20063;-66
2022/03/06 03:09:06;;;;;;;28.73;25.35;;;30.80;91.40;;;;;;4147843;28;20045;-66
2022/03/06 03:11:10;;;;;;;27.90;24.55;;;30.90;91.50;;;;;;4162080;28;20061;-65
2022/03/06 03:13:15;;;;;;;29.80;26.58;;;30.90;91.50;;;;;;4154410;28;20515;-65
2022/03/06 03:15:21;;;;;;;28.10;25.10;;;30.90;91.10;;;;;;4156496;28;20041;-66
2022/03/06 03:17:26;;;;;;;32.38;25.58;;;31.00;91.20;;;;;;4162545;28;20041;-65
2022/03/06 03:19:33;;;;;;;29.63;26.17;;;31.00;91.20;;;;;;4162609;28;20095;-65
2022/03/06 03:21:37;;;;;;;29.08;26.00;;;31.10;91.10;;;;;;4161346;28;20510;-65
2022/03/06 03:23:42;;;;;;;28.65;25.65;;;31.20;91.20;;;;;;4163027;28;20079;-65
2022/03/06 03:25:47;;;;;;;31.45;27.08;;;31.20;91.20;;;;;;4162505;28;20463;-65
2022/03/06 03:27:54;;;;;;;29.45;26.40;;;31.10;91.20;;;;;;4161340;28;20043;-65
2022/03/06 03:29:58;;;;;;;30.38;26.80;;;31.10;91.00;;;;;;4162184;28;20056;-65
2022/03/06 03:32:06;;;;;;;28.60;25.50;;;31.10;91.10;;;;;;4157993;28;20045;-65
2022/03/06 03:34:13;;;;;;;29.30;26.05;;;31.10;90.70;;;;;;4155820;28;20120;-65
2022/03/06 03:36:17;;;;;;;29.83;26.63;;;31.20;90.80;;;;;;4156262;28;20049;-65
2022/03/06 03:38:22;;;;;;;30.35;27.30;;;31.20;90.70;;;;;;4161744;28;20045;-65
2022/03/06 03:40:27;;;;;;;29.45;26.35;;;31.30;90.70;;;;;;4162278;28;20046;-65
2022/03/06 03:42:32;;;;;;;29.45;25.75;;;31.40;90.40;;;;;;4161061;28;20116;-65
2022/03/06 03:44:40;;;;;;;31.17;26.98;;;31.50;90.60;;;;;;4135232;28;20045;-65
2022/03/06 03:46:49;;;;;;;29.30;26.40;;;31.50;90.20;;;;;;4162825;28;20100;-65
2022/03/06 03:48:55;;;;;;;29.63;26.10;;;31.50;90.20;;;;;;4161332;28;20048;-65
2022/03/06 03:51:01;;;;;;;28.98;25.65;;;31.40;90.30;;;;;;4162844;28;20076;-66
2022/03/06 03:53:10;;;;;;;28.65;25.75;;;31.50;90.80;;;;;;4162585;28;20067;-66
2022/03/06 03:55:14;;;;;;;33.40;26.58;;;31.50;90.20;;;;;;4162663;28;20140;-65
2022/03/06 03:57:23;;;;;;;30.42;25.48;;;31.60;90.00;;;;;;4161299;28;20053;-65
2022/03/06 03:59:28;;;;;;;30.20;26.92;;;31.60;90.10;;;;;;4141180;28;20046;-65
2022/03/06 04:01:34;;;;;;;30.52;27.27;;;31.60;89.90;;;;;;4162057;28;20068;-64
2022/03/06 04:03:40;;;;;;;29.02;25.85;;;31.80;89.80;;;;;;4159856;28;21418;-65
2022/03/06 04:05:48;;;;;;;29.27;25.92;;;31.70;89.90;;;;;;4162029;28;20041;-66
2022/03/06 04:07:54;;;;;;;31.67;26.15;;;31.70;90.00;;;;;;4162379;28;20855;-65
2022/03/06 04:10:00;;;;;;;29.83;26.65;;;31.70;90.00;;;;;;4156343;28;20034;-65
2022/03/06 04:12:09;;;;;;;29.83;26.65;;;31.80;89.20;;;;;;4162268;28;20034;-65
2022/03/06 04:14:16;;;;;;;29.23;26.20;;;31.80;89.70;;;;;;4162191;28;20080;-65
2022/03/06 04:16:23;;;;;;;32.90;28.05;;;31.90;89.20;;;;;;4161826;28;20042;-65
2022/03/06 04:18:31;;;;;;;32.42;25.08;;;32.00;89.80;;;;;;4155480;28;20041;-65
2022/03/06 04:20:39;;;;;;;38.55;25.95;;;32.00;90.10;;;;;;4161964;28;20039;-65
2022/03/06 04:22:46;;;;;;;32.63;25.98;;;32.10;90.20;;;;;;4162197;28;20049;-65
2022/03/06 04:24:54;;;;;;;28.55;25.30;;;32.10;90.20;;;;;;4158071;28;20137;-65
2022/03/06 04:26:59;;;;;;;26.88;23.95;;;32.30;90.30;;;;;;4150517;28;20520;-64
2022/03/06 04:29:08;;;;;;;28.20;25.30;;;32.30;90.30;;;;;;4162526;28;20128;-64
2022/03/06 04:31:15;;;;;;;28.17;24.70;;;32.40;90.30;;;;;;4163844;28;20068;-66
2022/03/06 04:33:20;;;;;;;31.08;25.48;;;32.50;90.00;;;;;;4151073;28;20069;-64
2022/03/06 04:35:27;;;;;;;29.50;23.63;;;32.50;89.50;;;;;;4156318;28;20562;-66
2022/03/06 04:37:32;;;;;;;27.38;24.30;;;32.60;89.20;;;;;;4148916;28;20080;-66
2022/03/06 04:39:38;;;;;;;28.75;25.35;;;32.60;89.00;;;;;;4161615;28;20057;-65
2022/03/06 04:41:44;;;;;;;26.92;24.05;;;32.60;88.70;;;;;;4165575;28;20048;-65
2022/03/06 04:43:52;;;;;;;27.25;23.63;;;32.60;88.20;;;;;;4165740;28;20046;-66
2022/03/06 04:45:57;;;;;;;27.45;24.60;;;32.70;88.30;;;;;;4158804;28;20515;-65
2022/03/06 04:48:06;;;;;;;27.08;24.33;;;32.70;87.60;;;;;;4152479;28;20034;-65
2022/03/06 04:50:17;;;;;;;33.35;24.10;;;32.70;87.80;;;;;;4164081;28;20709;-65
2022/03/06 04:52:28;;;;;;;25.88;23.33;;;32.80;87.40;;;;;;4163549;28;20037;-65
2022/03/06 04:54:35;;;;;;;25.27;22.52;;;32.80;87.00;;;;;;4165170;28;20050;-65
2022/03/06 04:56:42;;;;;;;24.85;22.25;;;32.90;86.60;;;;;;4151263;28;20042;-64
2022/03/06 04:58:49;;;;;;;24.63;22.02;;;32.90;85.50;;;;;;4165035;28;20045;-64
2022/03/06 05:00:58;;;;;;;23.83;21.33;;;33.00;86.40;;;;;;4160821;28;20041;-65
2022/03/06 05:03:07;;;;;;;22.42;20.23;;;33.00;86.30;;;;;;4165353;28;20164;-66
2022/03/06 05:05:12;;;;;;;21.40;19.25;;;33.10;86.50;;;;;;4159921;28;20477;-65
2022/03/06 05:07:22;;;;;;;23.35;20.77;;;33.10;85.80;;;;;;4163735;28;20053;-65
2022/03/06 05:09:29;;;;;;;24.00;20.90;;;33.20;85.80;;;;;;4165163;28;20041;-65
2022/03/06 05:11:35;;;;;;;22.98;20.50;;;33.30;85.00;;;;;;4164964;28;20053;-64
2022/03/06 05:13:41;;;;;;;23.00;20.30;;;33.30;84.40;;;;;;4163836;28;20414;-64
2022/03/06 05:15:49;;;;;;;22.13;19.65;;;33.30;85.00;;;;;;4164993;28;20053;-64
2022/03/06 05:17:54;;;;;;;21.40;19.27;;;33.20;85.60;;;;;;4164900;28;20033;-64
2022/03/06 05:20:03;;;;;;;21.33;19.05;;;33.20;85.10;;;;;;4156840;28;20052;-65
2022/03/06 05:22:08;;;;;;;22.10;19.55;;;33.30;85.30;;;;;;4164650;28;20034;-65
2022/03/06 05:24:13;;;;;;;20.85;18.65;;;33.40;85.20;;;;;;4164722;28;20045;-65
2022/03/06 05:26:20;;;;;;;22.98;19.48;;;33.40;85.20;;;;;;4153754;28;20160;-66
2022/03/06 05:28:29;;;;;;;22.38;19.98;;;33.50;86.00;;;;;;4158328;28;20045;-62
2022/03/06 05:30:34;;;;;;;21.65;19.55;;;33.50;86.20;;;;;;4163225;28;20440;-66
2022/03/06 05:32:41;;;;;;;23.40;19.95;;;33.30;86.10;;;;;;4164882;28;20052;-64
2022/03/06 05:34:49;;;;;;;21.30;19.08;;;33.40;86.00;;;;;;4163727;28;20060;-67
2022/03/06 05:36:55;;;;;;;21.27;18.98;;;33.40;85.10;;;;;;4156519;28;20111;-65
2022/03/06 05:39:01;;;;;;;22.55;19.90;;;33.40;84.90;;;;;;4161941;28;20138;-64
2022/03/06 05:41:14;;;;;;;21.38;18.95;;;33.60;85.00;;;;;;4148931;28;20222;-64
2022/03/06 05:43:27;;;;;;;21.85;19.60;;;33.60;84.50;;;;;;4159457;28;20103;-65
2022/03/06 05:45:37;;;;;;;20.48;18.38;;;33.50;84.60;;;;;;4151771;28;20050;-65
2022/03/06 05:47:45;;;;;;;19.23;17.27;;;33.60;84.60;;;;;;4153223;28;20376;-65
2022/03/06 05:49:52;;;;;;;22.02;18.60;;;33.60;83.30;;;;;;4156820;28;20043;-65
2022/03/06 05:51:57;;;;;;;21.10;18.23;;;33.60;83.90;;;;;;4164418;28;20136;-68
2022/03/06 05:54:09;;;;;;;;;;;33.70;83.90;;;;;;4165038;28;20053;-65
2022/03/06 05:56:19;;;;;;;19.13;17.17;;;33.80;82.80;;;;;;4150227;28;19931;-65
2022/03/06 05:58:26;;;;;;;20.08;17.98;;;34.00;83.70;;;;;;4164142;28;20045;-66
2022/03/06 06:00:31;;;;;;;20.30;18.17;;;34.00;84.40;;;;;;4154691;28;20634;-65
2022/03/06 06:02:37;;;;;;;19.90;17.80;;;34.00;85.30;;;;;;4162083;28;20136;-65
2022/03/06 06:04:44;;;;;;;21.00;18.90;;;34.00;85.40;;;;;;4161298;28;20053;-65
2022/03/06 06:06:49;;;;;;;26.33;19.58;;;34.00;85.20;;;;;;4155708;28;20041;-66
2022/03/06 06:08:56;;;;;;;23.80;19.65;;;34.10;84.70;;;;;;4164174;28;20045;-65
2022/03/06 06:11:03;;;;;;;22.10;19.00;;;34.00;84.40;;;;;;4162800;28;20052;-65
2022/03/06 06:13:15;;;;;;;23.60;19.15;;;34.00;84.30;;;;;;4164162;28;20038;-65
2022/03/06 06:15:22;;;;;;;22.25;19.13;;;34.00;83.60;;;;;;4164099;28;20049;-67
2022/03/06 06:17:29;;;;;;;24.90;20.00;;;34.00;83.30;;;;;;4163082;28;20049;-65
2022/03/06 06:19:36;;;;;;;21.85;19.65;;;34.00;83.80;;;;;;4164094;28;20103;-64
2022/03/06 06:21:43;;;;;;;21.13;19.00;;;34.00;84.20;;;;;;4163479;28;20069;-64
2022/03/06 06:23:49;;;;;;;19.92;17.92;;;34.00;84.40;;;;;;4186523;28;20041;-64
2022/03/06 06:25:56;;;;;;;19.48;17.25;;;34.00;84.70;;;;;;4162534;28;20041;-65
2022/03/06 06:28:01;;;;;;;19.38;17.38;;;34.10;84.40;;;;;;4150390;28;20042;-64
2022/03/06 06:30:07;;;;;;;21.02;16.95;;;34.20;83.70;;;;;;4161904;28;20041;-65
2022/03/06 06:32:23;;;;;;;17.42;15.73;;;34.20;83.40;;;;;;4162915;28;20076;-65
2022/03/06 06:34:28;;;;;;;18.33;15.00;;;34.20;83.10;;;;;;4163834;28;20137;-65
2022/03/06 06:36:36;;;;;;;17.58;15.60;;;34.20;82.20;;;;;;4159403;28;20053;-65
2022/03/06 06:38:44;;;;;;;18.45;16.23;;;34.30;81.90;;;;;;4146966;28;20095;-65
2022/03/06 06:40:50;;;;;;;19.33;15.55;;;34.40;81.40;;;;;;4152477;28;20061;-65
2022/03/06 06:42:58;;;;;;;17.95;15.35;;;34.40;80.60;;;;;;4152385;28;20038;-65
2022/03/06 06:45:07;;;;;;;20.27;16.23;;;34.50;80.80;;;;;;4146419;28;20678;-65
2022/03/06 06:47:11;;;;;;;17.98;16.10;;;34.50;80.80;;;;;;4153018;28;20040;-66
2022/03/06 06:49:19;;;;;;;20.95;15.45;;;34.40;80.90;;;;;;4148563;28;20104;-66
2022/03/06 06:51:27;;;;;;;19.67;15.00;;;34.50;81.30;;;;;;4156070;28;20056;-66
2022/03/06 06:53:32;;;;;;;17.40;15.68;;;34.60;81.20;;;;;;4160013;28;20069;-67
2022/03/06 06:55:40;;;;;;;16.70;15.00;;;34.60;81.30;;;;;;4153511;28;20115;-65
2022/03/06 06:57:46;;;;;;;17.27;15.23;;;34.60;81.90;;;;;;4148975;28;20074;-66
2022/03/06 06:59:51;;;;;;;25.33;15.77;;;34.50;82.10;;;;;;4150455;28;20056;-65
2022/03/06 07:01:58;;;;;;;16.95;15.02;;;34.40;81.50;;;;;;4148567;28;20046;-65
2022/03/06 07:04:06;;;;;;;18.63;14.70;;;34.50;81.10;;;;;;4148992;28;20046;-66
2022/03/06 07:06:12;;;;;;;16.30;14.73;;;34.50;79.90;;;;;;4152220;28;20520;-65
2022/03/06 07:08:24;;;;;;;16.50;14.80;;;34.60;80.10;;;;;;4154160;28;20069;-66
2022/03/06 07:10:32;;;;;;;18.40;14.68;;;34.70;80.00;;;;;;4153054;28;20420;-65
2022/03/06 07:12:45;;;;;;;17.40;15.18;;;34.70;79.90;;;;;;4150261;28;20041;-66
2022/03/06 07:14:51;;;;;;;16.75;14.90;;;34.70;79.30;;;;;;4145985;28;20041;-66
2022/03/06 07:17:05;;;;;;;15.88;14.23;;;34.70;79.10;;;;;;4146633;28;20038;-65
2022/03/06 07:19:17;;;;;;;16.33;14.55;;;34.70;78.90;;;;;;4151931;28;20076;-67
2022/03/06 07:21:22;;;;;;;16.85;15.05;;;34.70;79.20;;;;;;4149301;28;20675;-66
2022/03/06 07:23:31;;;;;;;17.25;15.40;;;34.80;80.00;;;;;;4156235;28;20454;-67
2022/03/06 07:25:37;;;;;;;17.02;15.18;;;34.80;80.30;;;;;;4153820;28;20063;-67
2022/03/06 07:27:43;;;;;;;17.02;15.35;;;34.90;81.10;;;;;;4155326;28;20059;-66
2022/03/06 07:29:49;;;;;;;16.95;15.15;;;34.90;81.00;;;;;;4153762;28;20152;-66
2022/03/06 07:31:55;;;;;;;17.38;15.68;;;34.90;80.80;;;;;;4150484;28;20059;-66
2022/03/06 07:34:05;;;;;;;16.48;15.07;;;34.70;80.90;;;;;;4150790;28;20038;-67
2022/03/06 07:36:13;;;;;;;16.50;14.82;;;34.70;81.20;;;;;;4155937;28;21965;-66
2022/03/06 07:38:19;;;;;;;17.20;15.50;;;34.70;80.00;;;;;;4155859;28;20046;-67
2022/03/06 07:40:24;;;;;;;16.25;14.68;;;34.70;80.10;;;;;;4154782;28;20385;-66
2022/03/06 07:42:33;;;;;;;16.15;14.63;;;34.70;80.00;;;;;;4156854;28;20052;-67
2022/03/06 07:44:38;;;;;;;17.15;15.35;;;34.60;80.00;;;;;;4163990;28;20049;-66
2022/03/06 07:46:43;;;;;;;18.73;14.68;;;34.60;80.00;;;;;;4147668;28;20125;-66
2022/03/06 07:48:49;;;;;;;16.65;14.90;;;34.60;80.10;;;;;;4151160;28;20049;-66
2022/03/06 07:50:56;;;;;;;16.98;14.88;;;34.70;80.20;;;;;;4148897;28;20130;-66
2022/03/06 07:53:02;;;;;;;16.52;14.93;;;34.70;79.80;;;;;;4147302;28;20049;-66
2022/03/06 07:55:13;;;;;;;17.13;15.35;;;34.60;80.00;;;;;;4150690;28;20057;-66
2022/03/06 07:57:24;;;;;;;16.83;15.07;;;34.60;80.00;;;;;;4148916;28;20095;-66
2022/03/06 07:59:40;;;;;;;16.90;15.18;;;34.50;80.00;;;;;;4155039;28;20048;-66
2022/03/06 08:01:54;;;;;;;16.33;14.40;;;34.40;80.20;;;;;;4157086;28;20034;-68
2022/03/06 08:04:11;;;;;;;17.35;15.52;;;34.40;80.60;;;;;;4152061;28;20073;-66
2022/03/06 08:06:17;;;;;;;17.33;15.60;;;34.40;80.60;;;;;;4151494;28;21035;-65
2022/03/06 08:08:35;;;;;;;18.75;15.57;;;34.50;80.30;;;;;;4153346;28;20408;-65
2022/03/06 08:10:50;;;;;;;16.80;15.00;;;34.60;80.30;;;;;;4147813;28;20050;-66
2022/03/06 08:12:57;;;;;;;16.95;15.30;;;34.60;79.20;;;;;;4162739;28;20140;-66
2022/03/06 08:15:05;;;;;;;18.92;16.02;;;34.60;79.10;;;;;;4162603;28;20057;-65
2022/03/06 08:17:10;;;;;;;18.65;14.88;;;34.60;78.30;;;;;;4152122;28;20053;-65
2022/03/06 08:19:16;;;;;;;16.85;15.02;;;34.50;78.80;;;;;;4155175;28;20046;-65
2022/03/06 08:21:29;;;;;;;18.65;15.00;;;34.40;79.10;;;;;;4149147;28;20046;-66
2022/03/06 08:23:38;;;;;;;16.77;14.90;;;34.40;78.90;;;;;;4159536;28;20042;-66
2022/03/06 08:26:04;;;;;;;17.48;15.65;;;34.50;79.10;;;;;;4154626;28;20049;-66
2022/03/06 08:28:12;;;;;;;16.85;15.10;;;34.40;79.50;;;;;;4161222;28;20072;-65
2022/03/06 08:30:26;;;;;;;17.17;15.48;;;34.30;79.90;;;;;;4152007;28;20042;-65
2022/03/06 08:32:38;;;;;;;21.38;16.65;;;34.30;80.50;;;;;;4160191;28;20053;-65
2022/03/06 08:34:58;;;;;;;19.90;16.52;;;34.20;80.70;;;;;;4162212;28;20041;-65
2022/03/06 08:37:07;;;;;;;16.83;14.73;;;34.20;81.10;;;;;;4153361;28;20038;-65
2022/03/06 08:39:22;;;;;;;18.20;16.35;;;34.20;81.10;;;;;;4146627;28;20057;-66
2022/03/06 08:41:37;;;;;;;17.95;16.00;;;34.30;81.00;;;;;;4154669;28;20046;-65
2022/03/06 08:44:01;;;;;;;19.23;16.35;;;34.30;81.50;;;;;;4147550;28;20053;-65
2022/03/06 08:46:12;;;;;;;20.45;16.20;;;34.30;81.90;;;;;;4154763;28;20492;-65
2022/03/06 08:48:32;;;;;;;18.80;16.35;;;34.20;82.10;;;;;;4158598;28;20077;-65
2022/03/06 08:50:42;;;;;;;20.67;16.35;;;34.20;81.80;;;;;;4153665;28;20038;-65
2022/03/06 08:52:51;;;;;;;18.75;16.60;;;34.20;81.20;;;;;;4158406;28;20561;-65
2022/03/06 08:54:58;;;;;;;18.65;16.65;;;34.30;80.70;;;;;;4161005;28;20073;-65
2022/03/06 08:57:06;;;;;;;18.88;15.95;;;34.20;79.90;;;;;;4158400;28;20088;-65
2022/03/06 08:59:21;;;;;;;17.48;15.63;;;34.20;80.60;;;;;;4159675;28;20056;-66
2022/03/06 09:01:28;;;;;;;18.58;16.67;;;34.10;80.70;;;;;;4157992;28;20080;-65
2022/03/06 09:03:34;;;;;;;18.52;15.90;;;34.10;81.40;;;;;;4157519;28;20041;-65
2022/03/06 09:05:41;;;;;;;19.65;17.05;;;34.10;81.50;;;;;;4158386;28;20052;-65
2022/03/06 09:07:46;;;;;;;17.92;15.93;;;34.10;81.30;;;;;;4153643;28;20479;-65
2022/03/06 09:09:52;;;;;;;19.25;16.88;;;34.10;81.60;;;;;;4148263;28;20547;-66
2022/03/06 09:11:58;;;;;;;19.38;16.60;;;34.10;81.30;;;;;;4148235;28;20096;-65
2022/03/06 09:14:03;;;;;;;27.17;19.15;;;34.10;81.50;;;;;;4153635;28;20050;-66
2022/03/06 09:16:08;;;;;;;23.10;19.08;;;34.10;82.30;;;;;;4151668;28;20408;-66
2022/03/06 09:18:13;;;;;;;21.58;19.27;;;34.10;82.90;;;;;;4149945;28;20084;-66
2022/03/06 09:20:20;;;;;;;23.67;19.27;;;34.10;82.80;;;;;;4151539;28;20053;-66
2022/03/06 09:22:27;;;;;;;27.38;21.00;;;34.10;82.80;;;;;;4150121;28;20033;-66
2022/03/06 09:24:31;;;;;;;26.77;20.42;;;34.10;82.60;;;;;;4158655;28;20420;-65
2022/03/06 09:26:39;;;;;;;24.92;19.95;;;34.10;82.60;;;;;;4154502;28;20050;-66
2022/03/06 09:28:43;;;;;;;23.83;20.33;;;34.10;82.90;;;;;;4151003;28;20476;-65
2022/03/06 09:30:50;;;;;;;26.02;20.55;;;34.10;83.20;;;;;;4149057;28;20038;-65
2022/03/06 09:32:57;;;;;;;32.47;21.08;;;34.10;83.30;;;;;;4151881;28;20072;-65
2022/03/06 09:35:01;;;;;;;21.85;19.42;;;34.10;83.60;;;;;;4154126;28;20590;-66
2022/03/06 09:37:07;;;;;;;24.15;20.48;;;34.10;83.40;;;;;;4152960;28;20045;-65
2022/03/06 09:39:13;;;;;;;24.30;20.33;;;34.10;83.40;;;;;;4154325;28;20515;-65
2022/03/06 09:41:18;;;;;;;22.33;19.95;;;34.10;83.30;;;;;;4151133;28;20041;-67
2022/03/06 09:43:24;;;;;;;21.73;18.80;;;34.10;83.30;;;;;;4150799;28;20045;-65
2022/03/06 09:45:31;;;;;;;19.77;16.75;;;34.10;83.30;;;;;;4152036;28;20042;-65
2022/03/06 09:47:36;;;;;;;19.92;17.70;;;34.10;83.90;;;;;;4151914;28;20056;-66
2022/03/06 09:49:45;;;;;;;21.75;18.05;;;34.10;83.70;;;;;;4149936;28;20048;-66
2022/03/06 09:51:54;;;;;;;18.63;16.75;;;34.00;83.00;;;;;;4151521;28;20069;-66
2022/03/06 09:53:59;;;;;;;20.10;17.40;;;34.00;82.30;;;;;;4151936;28;20042;-66
2022/03/06 09:56:04;;;;;;;18.20;16.27;;;34.00;83.00;;;;;;4152455;28;20550;-67
2022/03/06 09:58:11;;;;;;;20.05;17.90;;;34.10;83.30;;;;;;4152799;28;20046;-66
2022/03/06 10:00:16;;;;;;;19.08;17.05;;;34.10;83.50;;;;;;4152012;28;20051;-66
2022/03/06 10:02:22;;;;;;;22.45;17.40;;;34.00;83.30;;;;;;4150843;28;20038;-66
2022/03/06 10:04:30;;;;;;;23.98;17.52;;;34.00;83.10;;;;;;4153308;28;20492;-66
2022/03/06 10:06:34;;;;;;;19.60;17.52;;;34.00;83.10;;;;;;4153344;28;20045;-66
2022/03/06 10:08:40;;;;;;;23.35;18.95;;;33.90;83.20;;;;;;4149985;28;20042;-66
2022/03/06 10:10:46;;;;;;;28.30;18.98;;;34.00;83.70;;;;;;4151030;28;20034;-67
2022/03/06 10:12:51;;;;;;;25.08;19.35;;;33.90;84.10;;;;;;4149188;28;20064;-66
2022/03/06 10:15:05;;;;;;;23.75;19.50;;;34.00;84.50;;;;;;4151114;28;20057;-66
2022/03/06 10:17:14;;;;;;;24.73;19.80;;;33.90;85.30;;;;;;4147882;28;20499;-65
2022/03/06 10:19:20;;;;;;;26.65;19.33;;;33.90;85.30;;;;;;4153196;28;20116;-66
2022/03/06 10:21:29;;;;;;;20.50;18.30;;;33.90;85.00;;;;;;4149116;28;20562;-66
2022/03/06 10:23:36;;;;;;;19.50;17.63;;;33.90;85.00;;;;;;4152123;28;20065;-65
2022/03/06 10:25:41;;;;;;;20.20;18.13;;;33.80;84.80;;;;;;4151578;28;20466;-66
2022/03/06 10:27:48;;;;;;;20.13;17.70;;;33.80;84.90;;;;;;4150531;28;20046;-66
2022/03/06 10:29:55;;;;;;;22.05;18.63;;;33.80;85.30;;;;;;4148161;28;20046;-67
2022/03/06 10:32:04;;;;;;;26.35;18.58;;;33.80;85.60;;;;;;4161925;28;20037;-65
2022/03/06 10:34:10;;;;;;;21.70;18.67;;;33.70;85.70;;;;;;4146486;28;20049;-65
2022/03/06 10:36:18;;;;;;;25.83;19.13;;;33.70;85.60;;;;;;4145408;28;20500;-65
2022/03/06 10:38:28;;;;;;;23.27;20.10;;;33.60;85.60;;;;;;4146904;28;20073;-66
2022/03/06 10:40:38;;;;;;;26.45;19.67;;;33.60;85.60;;;;;;4148801;28;20786;-66
2022/03/06 10:42:45;;;;;;;21.95;18.70;;;33.50;86.00;;;;;;4151200;28;20037;-66
2022/03/06 10:44:52;;;;;;;23.42;20.90;;;33.50;86.00;;;;;;4146250;28;20053;-65
2022/03/06 10:47:04;;;;;;;26.48;23.05;;;33.50;86.70;;;;;;4146386;28;20556;-66
2022/03/06 10:49:15;;;;;;;31.92;28.27;;;33.40;86.80;;;;;;4153360;28;20119;-66